Terminal Aerodrome Forecast
Issued by NWS Twin Cities, MN

Home | Current Version | Previous Version | Graphics & Text | Print | Product List | Glossary On
Versions: 1 2 3 4 5 6 7 8 9 10 11 12 13 14 15 16
000
FTUS43 KMPX 241100
TAFSTC
TAF
KSTC 241124Z 2412/2512 33009KT 6SM BR BKN009 OVC015
     FM241700 32007KT P6SM SCT009 OVC015
     FM250400 23005KT P6SM BKN025 OVC080
     FM250900 19006KT P6SM BKN020 OVC040=

USA.gov is the U.S. government's official web portal to all federal, state and local government web resources and services.